createdAt,value
2019-03-04T00:01:12.168Z,18.90
2019-03-04T00:07:15.172Z,18.80
2019-03-04T00:13:17.909Z,18.80
2019-03-04T00:19:20.653Z,18.80
2019-03-04T00:25:23.380Z,18.80
2019-03-04T00:31:26.348Z,18.70
2019-03-04T00:37:29.085Z,18.70
2019-03-04T00:43:31.811Z,18.60
2019-03-04T00:49:34.535Z,18.60
2019-03-04T00:55:37.528Z,18.60
2019-03-04T01:01:40.250Z,18.50
2019-03-04T01:07:43.104Z,18.50
2019-03-04T01:13:47.974Z,18.50
2019-03-04T01:19:50.699Z,18.40
2019-03-04T01:25:53.433Z,18.40
2019-03-04T01:31:56.196Z,18.40
2019-03-04T01:37:58.947Z,18.30
2019-03-04T01:44:02.022Z,18.30
2019-03-04T01:50:07.591Z,18.20
2019-03-04T01:56:10.603Z,18.10
2019-03-04T02:02:13.351Z,18.20
2019-03-04T02:08:16.100Z,18.10
2019-03-04T02:14:18.819Z,18.10
2019-03-04T02:20:21.563Z,18.00
2019-03-04T02:26:24.367Z,18.00
2019-03-04T02:32:27.093Z,17.90
2019-03-04T02:38:30.168Z,17.90
2019-03-04T02:44:32.882Z,17.90
2019-03-04T02:50:35.617Z,17.90
2019-03-04T02:56:38.365Z,17.80
2019-03-04T03:02:41.098Z,17.80
2019-03-04T03:08:43.829Z,17.70
2019-03-04T03:14:47.305Z,17.70
2019-03-04T03:20:50.046Z,17.70
2019-03-04T03:26:52.848Z,17.60
2019-03-04T03:32:56.846Z,17.60
2019-03-04T03:38:59.572Z,17.60
2019-03-04T03:45:03.300Z,17.50
2019-03-04T03:51:06.284Z,17.50
2019-03-04T03:57:09.005Z,17.50
2019-03-04T04:03:11.720Z,17.50
2019-03-04T04:09:14.459Z,17.50
2019-03-04T04:15:18.127Z,17.50
2019-03-04T04:21:20.844Z,17.60
2019-03-04T04:27:23.569Z,17.70
2019-03-04T04:33:26.299Z,17.80
2019-03-04T04:39:29.020Z,17.90
2019-03-04T04:45:31.749Z,17.90
2019-03-04T04:51:34.491Z,17.90
2019-03-04T04:57:37.563Z,17.90
2019-03-04T05:03:40.296Z,17.90
2019-03-04T05:09:43.029Z,17.90
2019-03-04T05:15:45.753Z,17.80
2019-03-04T05:21:48.488Z,17.80
2019-03-04T05:27:51.212Z,17.80
2019-03-04T05:33:53.938Z,17.80
2019-03-04T05:39:56.660Z,17.70
2019-03-04T05:45:59.439Z,17.70
2019-03-04T05:52:21.592Z,17.60
2019-03-04T05:58:43.744Z,17.60
2019-03-04T06:04:46.470Z,17.50
2019-03-04T06:10:49.197Z,17.50
2019-03-04T06:16:51.924Z,17.50
2019-03-04T06:22:54.653Z,17.50
2019-03-04T06:28:57.375Z,17.50
2019-03-04T06:35:00.358Z,17.40
2019-03-04T06:41:03.079Z,17.40
2019-03-04T06:47:05.807Z,17.40
2019-03-04T06:53:08.535Z,17.30
2019-03-04T06:59:14.527Z,17.30
2019-03-04T07:05:42.672Z,17.30
2019-03-04T07:11:45.412Z,17.20
2019-03-04T07:17:48.135Z,17.20
2019-03-04T07:23:50.866Z,17.20
2019-03-04T07:29:53.592Z,17.20
2019-03-04T07:35:56.373Z,17.20
2019-03-04T07:41:59.119Z,17.10
2019-03-04T07:48:04.090Z,17.10
2019-03-04T07:54:06.852Z,17.10
2019-03-04T08:00:11.411Z,17.00
2019-03-04T08:06:14.132Z,17.00
2019-03-04T08:12:38.036Z,17.00
2019-03-04T08:18:40.768Z,17.00
2019-03-04T08:24:43.531Z,17.00
2019-03-04T08:30:46.255Z,16.90
2019-03-04T08:36:48.980Z,17.00
2019-03-04T08:42:51.708Z,16.90
2019-03-04T08:48:54.436Z,16.90
2019-03-04T08:54:57.164Z,16.90
2019-03-04T09:01:19.321Z,16.90
2019-03-04T09:07:22.140Z,16.90
2019-03-04T09:13:44.306Z,16.90
2019-03-04T09:19:47.100Z,16.90
2019-03-04T09:25:53.087Z,16.90
2019-03-04T09:31:55.808Z,16.90
2019-03-04T09:37:58.531Z,16.90
2019-03-04T09:44:20.692Z,16.80
2019-03-04T09:50:27.343Z,16.90
2019-03-04T09:56:30.424Z,16.90
2019-03-04T10:02:33.592Z,16.90
2019-03-04T10:09:03.207Z,16.90
2019-03-04T10:15:38.253Z,16.90
2019-03-04T10:21:44.240Z,16.90
2019-03-04T10:28:06.825Z,16.90
2019-03-04T10:34:15.476Z,16.90
2019-03-04T10:40:30.444Z,16.90
2019-03-04T10:46:53.177Z,16.90
2019-03-04T10:52:55.908Z,16.90
2019-03-04T10:58:58.904Z,17.00
2019-03-04T11:05:01.636Z,16.90
2019-03-04T11:11:04.364Z,16.90
2019-03-04T11:17:07.097Z,17.00
2019-03-04T11:23:09.811Z,17.00
2019-03-04T11:29:13.350Z,17.00
2019-03-04T11:35:16.565Z,17.00
2019-03-04T11:41:21.284Z,17.00
2019-03-04T11:47:24.020Z,17.00
2019-03-04T11:53:27.035Z,17.00
2019-03-04T11:59:29.828Z,17.10
2019-03-04T12:05:32.559Z,17.10
2019-03-04T12:11:38.287Z,17.10
2019-03-04T12:17:39.828Z,17.10
2019-03-04T12:24:02.232Z,17.10
2019-03-04T12:30:08.215Z,17.10
2019-03-04T12:36:11.255Z,17.10
2019-03-04T12:42:14.003Z,17.10
2019-03-04T12:48:17.027Z,17.20
2019-03-04T12:54:20.079Z,17.10
2019-03-04T13:00:29.943Z,17.20
2019-03-04T13:06:32.668Z,17.20
2019-03-04T13:12:35.392Z,17.20
2019-03-04T13:18:38.376Z,17.20
2019-03-04T13:24:41.104Z,17.20
2019-03-04T13:31:03.269Z,17.20
2019-03-04T13:37:06.011Z,17.20
2019-03-04T13:43:08.740Z,17.20
2019-03-04T13:49:11.470Z,17.20
2019-03-04T13:55:14.832Z,17.30
2019-03-04T14:01:17.578Z,17.30
2019-03-04T14:07:20.295Z,17.30
2019-03-04T14:13:23.018Z,17.30
2019-03-04T14:19:25.752Z,17.30
2019-03-04T14:25:28.498Z,17.30
2019-03-04T14:31:31.240Z,17.30
2019-03-04T14:37:33.977Z,17.30
2019-03-04T14:43:36.708Z,17.30
2019-03-04T14:49:44.795Z,17.30
2019-03-04T14:55:43.956Z,17.30
2019-03-04T15:01:46.688Z,17.30
2019-03-04T15:07:49.411Z,17.30
2019-03-04T15:13:52.150Z,17.30
2019-03-04T15:19:54.880Z,17.30
2019-03-04T15:25:57.608Z,17.30
2019-03-04T15:32:00.464Z,17.30
2019-03-04T15:38:03.677Z,17.30
2019-03-04T15:44:06.391Z,17.30
2019-03-04T15:50:10.259Z,17.30
2019-03-04T15:56:12.995Z,17.30
2019-03-04T16:02:15.725Z,17.30
2019-03-04T16:08:18.452Z,17.30
2019-03-04T16:14:21.189Z,17.30
2019-03-04T16:20:23.928Z,17.30
2019-03-04T16:26:26.648Z,17.30
2019-03-04T16:32:29.387Z,17.30
2019-03-04T16:38:32.103Z,17.30
2019-03-04T16:44:34.927Z,17.20
2019-03-04T16:50:39.956Z,17.20
2019-03-04T16:56:42.684Z,17.20
2019-03-04T17:02:45.411Z,17.20
2019-03-04T17:08:48.204Z,17.20
2019-03-04T17:14:50.931Z,17.20
2019-03-04T17:20:53.984Z,17.20
2019-03-04T17:26:56.705Z,17.20
2019-03-04T17:32:59.578Z,17.20
2019-03-04T17:39:21.737Z,17.20
2019-03-04T17:45:27.823Z,17.20
2019-03-04T17:51:30.543Z,17.10
2019-03-04T17:57:33.272Z,17.10
2019-03-04T18:03:36.005Z,17.10
2019-03-04T18:09:38.731Z,17.10
2019-03-04T18:15:42.103Z,17.10
2019-03-04T18:21:44.827Z,17.10
2019-03-04T18:27:50.295Z,17.10
2019-03-04T18:34:05.307Z,17.00
2019-03-04T18:40:43.107Z,17.00
2019-03-04T18:47:01.007Z,17.00
2019-03-04T18:53:03.736Z,16.90
2019-03-04T18:59:06.463Z,16.90
2019-03-04T19:05:10.156Z,16.90
2019-03-04T19:11:14.771Z,16.90
2019-03-04T19:17:17.500Z,16.90
2019-03-04T19:23:20.230Z,16.80
2019-03-04T19:29:22.971Z,16.80
2019-03-04T19:35:25.756Z,16.80
2019-03-04T19:41:28.471Z,16.80
2019-03-04T19:47:31.294Z,16.80
2019-03-04T19:53:34.020Z,16.70
2019-03-04T19:59:36.790Z,16.70
2019-03-04T20:05:39.511Z,16.70
2019-03-04T20:11:42.564Z,16.70
2019-03-04T20:17:45.580Z,16.70
2019-03-04T20:23:48.552Z,16.70
2019-03-04T20:29:51.600Z,16.70
2019-03-04T20:36:13.759Z,16.70
2019-03-04T20:42:16.768Z,16.70
2019-03-04T20:48:19.527Z,16.70
2019-03-04T20:54:22.319Z,16.70
2019-03-04T21:00:28.308Z,16.70
2019-03-04T21:06:31.041Z,16.60
2019-03-04T21:12:33.840Z,16.60
2019-03-04T21:18:36.884Z,16.60
2019-03-04T21:24:39.616Z,16.50
2019-03-04T21:30:51.312Z,16.50
2019-03-04T21:37:06.766Z,16.50
2019-03-04T21:43:15.456Z,16.50
2019-03-04T21:49:18.456Z,16.40
2019-03-04T21:55:24.758Z,16.40
2019-03-04T22:01:33.319Z,16.40
2019-03-04T22:07:37.318Z,16.30
2019-03-04T22:13:59.665Z,16.30
2019-03-04T22:20:03.430Z,16.40
2019-03-04T22:26:06.163Z,16.30
2019-03-04T22:32:08.892Z,16.30
2019-03-04T22:38:11.855Z,16.30
2019-03-04T22:44:14.704Z,16.20
2019-03-04T22:50:21.595Z,16.20
2019-03-04T22:56:24.339Z,16.20
2019-03-04T23:02:27.071Z,16.20
2019-03-04T23:08:29.878Z,16.10
2019-03-04T23:14:32.629Z,16.10
2019-03-04T23:20:54.832Z,16.10
2019-03-04T23:27:16.988Z,16.10
2019-03-04T23:33:20.037Z,16.00
2019-03-04T23:39:23.015Z,16.00
2019-03-04T23:45:25.740Z,16.00
2019-03-04T23:51:28.466Z,16.00
2019-03-04T23:57:31.544Z,16.00
